Time;durP1;ratioP1;P1;durP2;ratioP2;P2;SDS_P1;SDS_P2;PMS_P1;PMS_P2;Temp;Humidity;BMP_temperature;BMP_pressure;BME280_temperature;BME280_humidity;BME280_pressure;Samples;Min_cycle;Max_cycle;Signal;HPM_P1;HPM_P2
2023/09/09 00:00:50;;;;;;;15.63;11.20;;;;;;;;;;5018810;28;20679;-69
2023/09/09 00:03:16;;;;;;;18.03;11.57;;;;;;;;;;5036927;28;20181;-70
2023/09/09 00:05:42;;;;;;;13.10;10.40;;;;;;;;;;5037035;28;20182;-69
2023/09/09 00:08:08;;;;;;;12.17;10.33;;;;;;;;;;5036701;28;20179;-70
2023/09/09 00:10:38;;;;;;;11.40;9.83;;;;;;;;;;5019277;28;20598;-71
2023/09/09 00:13:04;;;;;;;10.70;9.60;;;;;;;;;;5037066;28;20214;-71
2023/09/09 00:15:31;;;;;;;12.83;9.83;;;;;;;;;;5019135;28;20179;-71
2023/09/09 00:17:57;;;;;;;14.13;10.27;;;;;;;;;;5037225;28;20195;-70
2023/09/09 00:20:30;;;;;;;11.10;10.00;;;;;;;;;;5036758;28;20537;-70
2023/09/09 00:22:56;;;;;;;12.97;10.40;;;;;;;;;;5018976;28;20179;-70
2023/09/09 00:25:22;;;;;;;12.03;9.97;;;;;;;;;;5035914;28;20183;-70
2023/09/09 00:27:48;;;;;;;13.37;10.67;;;;;;;;;;5036979;28;20233;-70
2023/09/09 00:30:14;;;;;;;10.73;9.63;;;;;;;;;;5018178;28;20210;-67
2023/09/09 00:32:39;;;;;;;14.27;10.40;;;;;;;;;;5036609;28;20183;-69
2023/09/09 00:35:06;;;;;;;12.17;9.73;;;;;;;;;;5036580;28;20179;-70
2023/09/09 00:37:32;;;;;;;11.20;10.07;;;;;;;;;;5019018;28;20203;-70
2023/09/09 00:39:58;;;;;;;17.57;10.17;;;;;;;;;;5018900;28;20707;-70
2023/09/09 00:42:24;;;;;;;12.00;9.80;;;;;;;;;;5038104;28;20179;-70
2023/09/09 00:44:50;;;;;;;11.73;9.40;;;;;;;;;;5023402;28;20254;-69
2023/09/09 00:47:17;;;;;;;12.67;10.23;;;;;;;;;;5041324;28;20180;-70
2023/09/09 00:49:43;;;;;;;14.53;9.93;;;;;;;;;;5040526;28;20241;-70
2023/09/09 00:52:09;;;;;;;14.40;10.75;;;;;;;;;;5036096;28;20383;-70
2023/09/09 00:54:35;;;;;;;;;;;;;;;;;;5018967;28;20899;-70
2023/09/09 00:57:01;;;;;;;;;;;;;;;;;;5018820;28;19909;-71
2023/09/09 00:59:26;;;;;;;;;;;;;;;;;;5037105;28;20414;-69
2023/09/09 01:01:52;;;;;;;;;;;;;;;;;;5019089;28;19997;-70
2023/09/09 01:04:18;;;;;;;;;;;;;;;;;;5018938;28;19944;-70
2023/09/09 01:06:44;;;;;;;;;;;;;;;;;;5036619;28;20397;-71
2023/09/09 01:09:10;;;;;;;;;;;;;;;;;;5036392;28;19944;-70
2023/09/09 01:11:36;;;;;;;;;;;;;;;;;;5036533;28;20370;-70
2023/09/09 01:14:02;;;;;;;;;;;;;;;;;;5036725;28;19938;-70
2023/09/09 01:16:28;;;;;;;;;;;;;;;;;;5036427;28;20034;-70
2023/09/09 01:18:54;;;;;;;;;;;;;;;;;;5036503;28;19988;-69
2023/09/09 01:21:20;;;;;;;;;;;;;;;;;;5018350;28;19955;-70
2023/09/09 01:23:45;;;;;;;;;;;;;;;;;;5036043;28;20321;-69
2023/09/09 01:26:11;;;;;;;;;;;;;;;;;;5036366;28;20041;-69
2023/09/09 01:28:37;;;;;;;;;;;;;;;;;;5018895;28;19955;-69
2023/09/09 01:31:03;;;;;;;;;;;;;;;;;;5035807;28;20390;-69
2023/09/09 01:33:29;;;;;;;;;;;;;;;;;;5017935;28;19989;-70
2023/09/09 01:35:55;;;;;;;;;;;;;;;;;;5017119;28;20029;-69
2023/09/09 01:38:23;;;;;;;;;;;;;;;;;;5035149;28;20374;-69
2023/09/09 01:40:48;;;;;;;;;;;;;;;;;;5035466;28;20339;-68
2023/09/09 01:43:14;;;;;;;;;;;;;;;;;;5017811;28;19953;-70
2023/09/09 01:45:40;;;;;;;;;;;;;;;;;;5035579;28;20002;-70
2023/09/09 01:48:06;;;;;;;;;;;;;;;;;;5035086;28;20362;-69
2023/09/09 01:50:32;;;;;;;;;;;;;;;;;;5017244;28;19949;-68
2023/09/09 01:52:58;;;;;;;;;;;;;;;;;;5035918;28;19949;-69
2023/09/09 01:55:24;;;;;;;;;;;;;;;;;;5035095;28;19970;-69
2023/09/09 01:57:50;;;;;;;;;;;;;;;;;;5016762;28;20316;-70
2023/09/09 02:00:16;;;;;;;;;;;;;;;;;;5034608;28;19956;-70
2023/09/09 02:02:41;;;;;;;;;;;;;;;;;;5034791;28;19963;-69
2023/09/09 02:05:09;;;;;;;;;;;;;;;;;;5034393;28;19947;-69
2023/09/09 02:07:35;;;;;;;;;;;;;;;;;;5034485;28;19993;-69
2023/09/09 02:10:01;;;;;;;;;;;;;;;;;;5034576;28;20421;-70
2023/09/09 02:12:28;;;;;;;;;;;;;;;;;;5034325;28;19949;-70
2023/09/09 02:14:54;;;;;;;;;;;;;;;;;;5016347;28;19998;-69
2023/09/09 02:17:20;;;;;;;;;;;;;;;;;;5016148;28;19995;-69
2023/09/09 02:19:45;;;;;;;;;;;;;;;;;;5034085;28;19948;-70
2023/09/09 02:22:11;;;;;;;;;;;;;;;;;;5034127;28;19951;-70
2023/09/09 02:24:37;;;;;;;;;;;;;;;;;;5034223;28;20045;-69
2023/09/09 02:27:03;;;;;;;;;;;;;;;;;;5034200;28;19942;-69
2023/09/09 02:29:29;;;;;;;;;;;;;;;;;;5033741;28;19948;-69
2023/09/09 02:31:55;;;;;;;;;;;;;;;;;;5016084;28;19954;-69
2023/09/09 02:34:21;;;;;;;;;;;;;;;;;;5033577;28;20421;-69
2023/09/09 02:36:47;;;;;;;;;;;;;;;;;;5033764;28;19967;-72
2023/09/09 02:39:13;;;;;;;;;;;;;;;;;;5015983;28;19956;-70
2023/09/09 02:41:39;;;;;;;;;;;;;;;;;;5034033;28;19955;-70
2023/09/09 02:44:04;;;;;;;;;;;;;;;;;;5016040;28;20438;-69
2023/09/09 02:46:30;;;;;;;;;;;;;;;;;;5015895;28;19958;-69
2023/09/09 02:48:56;;;;;;;;;;;;;;;;;;5032908;28;19978;-69
2023/09/09 02:51:22;;;;;;;;;;;;;;;;;;5033346;28;19953;-69
2023/09/09 02:53:48;;;;;;;;;;;;;;;;;;5015629;28;19951;-69
2023/09/09 02:56:14;;;;;;;;;;;;;;;;;;5015665;28;20373;-68
2023/09/09 02:58:40;;;;;;;;;;;;;;;;;;5015525;28;20508;-70
2023/09/09 03:01:06;;;;;;;;;;;;;;;;;;5016028;28;19964;-70
2023/09/09 03:03:32;;;;;;;;;;;;;;;;;;5015649;28;20009;-69
2023/09/09 03:05:58;;;;;;;;;;;;;;;;;;5033574;28;19960;-69
2023/09/09 03:08:24;;;;;;;;;;;;;;;;;;5033913;28;20042;-69
2023/09/09 03:10:50;;;;;;;;;;;;;;;;;;5016108;28;20010;-70
2023/09/09 03:13:16;;;;;;;;;;;;;;;;;;5015637;28;20003;-68
2023/09/09 03:15:42;;;;;;;;;;;;;;;;;;5033369;28;20312;-69
2023/09/09 03:18:08;;;;;;;11.53;10.17;;;;;;;;;;5033307;28;20403;-70
2023/09/09 03:20:34;;;;;;;11.30;10.20;;;;;;;;;;5032920;28;20194;-69
2023/09/09 03:22:59;;;;;;;14.90;11.47;;;;;;;;;;5032841;28;20188;-69
2023/09/09 03:25:26;;;;;;;13.73;10.60;;;;;;;;;;5032708;28;20199;-69
2023/09/09 03:27:52;;;;;;;12.53;10.23;;;;;;;;;;5033216;28;20175;-69
2023/09/09 03:30:18;;;;;;;12.83;11.20;;;;;;;;;;5032237;28;20672;-69
2023/09/09 03:32:44;;;;;;;14.27;11.80;;;;;;;;;;5014414;28;20703;-69
2023/09/09 03:35:10;;;;;;;15.23;11.67;;;;;;;;;;5032447;28;20294;-69
2023/09/09 03:37:36;;;;;;;13.50;11.00;;;;;;;;;;5032404;28;20202;-69
2023/09/09 03:40:03;;;;;;;12.53;11.23;;;;;;;;;;5032147;28;20286;-69
2023/09/09 03:42:32;;;;;;;13.40;10.97;;;;;;;;;;5032287;28;20203;-68
2023/09/09 03:44:58;;;;;;;12.27;11.07;;;;;;;;;;5014370;28;20179;-69
2023/09/09 03:47:25;;;;;;;13.57;11.13;;;;;;;;;;5032128;28;20249;-69
2023/09/09 03:49:53;;;;;;;12.40;10.53;;;;;;;;;;5032133;28;20199;-69
2023/09/09 03:52:19;;;;;;;14.90;11.37;;;;;;;;;;5032212;28;20203;-70
2023/09/09 03:54:45;;;;;;;11.57;10.47;;;;;;;;;;5032631;28;20205;-70
2023/09/09 03:57:11;;;;;;;12.80;10.50;;;;;;;;;;5032267;28;20712;-69
2023/09/09 03:59:37;;;;;;;11.43;10.23;;;;;;;;;;5032712;28;20215;-68
2023/09/09 04:02:03;;;;;;;11.67;10.50;;;;;;;;;;5035726;28;20176;-69
2023/09/09 04:04:29;;;;;;;11.27;10.17;;;;;;;;;;5035624;28;20182;-69
2023/09/09 04:06:55;;;;;;;11.30;10.07;;;;;;;;;;5035797;28;20183;-69
2023/09/09 04:09:26;;;;;;;11.87;10.47;;;;;;;;;;5017774;28;20199;-69
2023/09/09 04:11:52;;;;;;;12.20;11.00;;;;;;;;;;5035908;28;20228;-69
2023/09/09 04:14:18;;;;;;;12.07;10.97;;;;;;;;;;5017879;28;20565;-69
2023/09/09 04:16:44;;;;;;;12.43;11.20;;;;;;;;;;5035902;28;20176;-69
2023/09/09 04:19:10;;;;;;;12.07;10.93;;;;;;;;;;5018062;28;20277;-69
2023/09/09 04:21:36;;;;;;;12.20;10.93;;;;;;;;;;5017798;28;20613;-69
2023/09/09 04:24:02;;;;;;;12.17;10.90;;;;;;;;;;5035515;28;20529;-69
2023/09/09 04:26:28;;;;;;;12.80;11.03;;;;;;;;;;5035637;28;20206;-70
2023/09/09 04:28:54;;;;;;;11.57;10.40;;;;;;;;;;5035451;28;20179;-69
2023/09/09 04:31:20;;;;;;;13.10;11.80;;;;;;;;;;5017792;28;20186;-70
2023/09/09 04:33:46;;;;;;;13.43;11.97;;;;;;;;;;5035588;28;20179;-69
2023/09/09 04:36:12;;;;;;;13.87;11.77;;;;;;;;;;5035698;28;20186;-71
2023/09/09 04:38:39;;;;;;;12.33;10.33;;;;;;;;;;5035571;28;20203;-69
2023/09/09 04:41:05;;;;;;;12.07;10.77;;;;;;;;;;5035201;28;20191;-71
2023/09/09 04:43:31;;;;;;;12.60;11.23;;;;;;;;;;5035988;28;20266;-70
2023/09/09 04:45:57;;;;;;;12.13;10.90;;;;;;;;;;5035686;28;20179;-69
2023/09/09 04:48:22;;;;;;;13.07;11.40;;;;;;;;;;5017864;28;20179;-71
2023/09/09 04:50:48;;;;;;;14.63;12.03;;;;;;;;;;5035519;28;20571;-69
2023/09/09 04:53:14;;;;;;;13.50;12.10;;;;;;;;;;5017928;28;20336;-70
2023/09/09 04:55:40;;;;;;;16.77;12.50;;;;;;;;;;5035356;28;20286;-69
2023/09/09 04:58:10;;;;;;;19.17;11.77;;;;;;;;;;5034901;28;20559;-71
2023/09/09 05:00:36;;;;;;;19.00;12.73;;;;;;;;;;5034850;28;20206;-69
2023/09/09 05:03:02;;;;;;;16.97;12.63;;;;;;;;;;5034726;28;20179;-70
2023/09/09 05:05:28;;;;;;;13.43;11.83;;;;;;;;;;5034994;28;20175;-69
2023/09/09 05:07:53;;;;;;;14.77;11.80;;;;;;;;;;5034660;28;20179;-69
2023/09/09 05:10:21;;;;;;;13.50;12.07;;;;;;;;;;5016525;28;20234;-71
2023/09/09 05:12:47;;;;;;;13.10;11.80;;;;;;;;;;5034591;28;20175;-70
2023/09/09 05:15:13;;;;;;;14.37;12.77;;;;;;;;;;5034785;28;20186;-70
2023/09/09 05:17:39;;;;;;;20.60;13.77;;;;;;;;;;5018053;28;20210;-70
2023/09/09 05:20:05;;;;;;;15.37;12.03;;;;;;;;;;5036798;28;20191;-73
2023/09/09 05:22:31;;;;;;;16.70;11.83;;;;;;;;;;5035412;28;20187;-70
2023/09/09 05:24:57;;;;;;;14.73;12.17;;;;;;;;;;5034466;28;20241;-69
2023/09/09 05:27:23;;;;;;;13.37;11.97;;;;;;;;;;5034615;28;20209;-69
2023/09/09 05:29:49;;;;;;;13.20;11.80;;;;;;;;;;5034364;28;20199;-71
2023/09/09 05:32:16;;;;;;;14.73;11.70;;;;;;;;;;5034624;28;20179;-69
2023/09/09 05:34:42;;;;;;;14.10;12.60;;;;;;;;;;5034608;28;20235;-69
2023/09/09 05:37:08;;;;;;;13.20;11.93;;;;;;;;;;5034406;28;20237;-70
2023/09/09 05:39:34;;;;;;;13.97;12.47;;;;;;;;;;5016697;28;20250;-69
2023/09/09 05:42:00;;;;;;;14.40;12.00;;;;;;;;;;5034275;28;20641;-70
2023/09/09 05:44:26;;;;;;;13.10;11.77;;;;;;;;;;5017673;28;20206;-70
2023/09/09 05:46:53;;;;;;;15.50;12.57;;;;;;;;;;5034325;28;20641;-71
2023/09/09 05:49:19;;;;;;;15.73;12.13;;;;;;;;;;5016401;28;20224;-70
2023/09/09 05:51:45;;;;;;;14.03;12.50;;;;;;;;;;5016384;28;20680;-69
2023/09/09 05:54:11;;;;;;;15.87;12.73;;;;;;;;;;5034321;28;20552;-70
2023/09/09 05:56:37;;;;;;;17.27;12.30;;;;;;;;;;5016203;28;20183;-70
2023/09/09 05:59:07;;;;;;;17.93;13.07;;;;;;;;;;5033962;28;20265;-70
2023/09/09 06:01:33;;;;;;;16.33;13.53;;;;;;;;;;5016609;28;20668;-71
2023/09/09 06:03:59;;;;;;;15.03;12.80;;;;;;;;;;5033789;28;20205;-68
2023/09/09 06:06:25;;;;;;;19.67;13.47;;;;;;;;;;5016236;28;20179;-69
2023/09/09 06:08:51;;;;;;;20.50;13.90;;;;;;;;;;5016205;28;20206;-70
2023/09/09 06:11:17;;;;;;;17.23;14.17;;;;;;;;;;5034159;28;20179;-70
2023/09/09 06:13:43;;;;;;;18.60;14.30;;;;;;;;;;5016136;28;20237;-70
2023/09/09 06:16:09;;;;;;;19.03;14.93;;;;;;;;;;5016192;28;20191;-70
2023/09/09 06:18:38;;;;;;;19.70;15.30;;;;;;;;;;5034111;28;20203;-70
2023/09/09 06:21:04;;;;;;;23.03;16.03;;;;;;;;;;5033293;28;20249;-70
2023/09/09 06:23:30;;;;;;;22.33;15.47;;;;;;;;;;5032929;28;20175;-70
2023/09/09 06:25:56;;;;;;;21.43;14.90;;;;;;;;;;5033834;28;20186;-70
2023/09/09 06:28:22;;;;;;;19.53;14.73;;;;;;;;;;5035458;28;20183;-70
2023/09/09 06:30:48;;;;;;;19.73;14.17;;;;;;;;;;5038111;28;20214;-66
2023/09/09 06:33:14;;;;;;;26.03;14.77;;;;;;;;;;5038829;28;20183;-68
2023/09/09 06:35:50;;;;;;;18.53;13.33;;;;;;;;;;5020196;28;20748;-70
2023/09/09 06:38:16;;;;;;;22.97;15.27;;;;;;;;;;5019817;28;20705;-70
2023/09/09 06:40:45;;;;;;;18.40;13.97;;;;;;;;;;5016172;28;20202;-69
2023/09/09 06:43:11;;;;;;;20.27;13.90;;;;;;;;;;5033524;28;20199;-69
2023/09/09 06:45:37;;;;;;;22.23;15.00;;;;;;;;;;5015415;28;20226;-69
2023/09/09 06:48:03;;;;;;;23.00;15.13;;;;;;;;;;5015529;28;20179;-69
2023/09/09 06:50:29;;;;;;;23.23;15.83;;;;;;;;;;5032932;28;20203;-70
2023/09/09 06:52:55;;;;;;;22.13;16.37;;;;;;;;;;5015299;28;20183;-70
2023/09/09 06:55:21;;;;;;;25.77;17.63;;;;;;;;;;5015336;28;20214;-71
2023/09/09 06:57:47;;;;;;;22.87;16.17;;;;;;;;;;5033054;28;20230;-70
2023/09/09 07:00:13;;;;;;;29.70;17.20;;;;;;;;;;5032900;28;20211;-70
2023/09/09 07:02:40;;;;;;;30.40;17.63;;;;;;;;;;5015242;28;20171;-69
2023/09/09 07:05:06;;;;;;;33.43;20.03;;;;;;;;;;5033509;28;20551;-69
2023/09/09 07:07:33;;;;;;;33.10;19.37;;;;;;;;;;5032761;28;20186;-71
2023/09/09 07:09:59;;;;;;;30.70;19.30;;;;;;;;;;5033123;28;20191;-69
2023/09/09 07:12:25;;;;;;;33.97;19.23;;;;;;;;;;5033117;28;20213;-69
2023/09/09 07:14:51;;;;;;;38.30;21.97;;;;;;;;;;5033001;28;20266;-69
2023/09/09 07:17:17;;;;;;;29.93;20.17;;;;;;;;;;5015110;28;20202;-69
2023/09/09 07:19:43;;;;;;;27.93;21.10;;;;;;;;;;5032929;28;20225;-69
2023/09/09 07:22:10;;;;;;;30.57;20.27;;;;;;;;;;5015146;28;20197;-69
2023/09/09 07:24:36;;;;;;;27.37;18.33;;;;;;;;;;5032828;28;20175;-69
2023/09/09 07:27:03;;;;;;;27.13;17.57;;;;;;;;;;5032689;28;20262;-70
2023/09/09 07:29:29;;;;;;;23.07;16.47;;;;;;;;;;5032651;28;20200;-69
2023/09/09 07:31:55;;;;;;;20.47;14.43;;;;;;;;;;5015687;28;20557;-69
2023/09/09 07:34:21;;;;;;;17.50;14.43;;;;;;;;;;5034917;28;20179;-69
2023/09/09 07:36:47;;;;;;;18.43;14.80;;;;;;;;;;5018647;28;20252;-69
2023/09/09 07:39:14;;;;;;;20.47;15.33;;;;;;;;;;5036393;28;20696;-69
2023/09/09 07:41:40;;;;;;;20.97;17.47;;;;;;;;;;5036349;28;20232;-70
2023/09/09 07:44:06;;;;;;;24.93;17.13;;;;;;;;;;5036411;28;20176;-69
2023/09/09 07:46:33;;;;;;;20.83;15.63;;;;;;;;;;5036363;28;20186;-68
2023/09/09 07:48:59;;;;;;;17.20;14.10;;;;;;;;;;5036172;28;20265;-69
2023/09/09 07:51:25;;;;;;;18.70;14.60;;;;;;;;;;5036054;28;20194;-70
2023/09/09 07:53:52;;;;;;;13.97;12.63;;;;;;;;;;5036196;28;20179;-69
2023/09/09 07:56:18;;;;;;;17.20;14.47;;;;;;;;;;5036110;28;20187;-70
2023/09/09 07:58:44;;;;;;;15.30;13.60;;;;;;;;;;5036280;28;20638;-70
2023/09/09 08:01:11;;;;;;;16.10;14.50;;;;;;;;;;5035820;28;20209;-70
2023/09/09 08:03:37;;;;;;;21.77;13.33;;;;;;;;;;5036157;28;20199;-68
2023/09/09 08:06:06;;;;;;;19.57;14.00;;;;;;;;;;5035971;28;20179;-69
2023/09/09 08:08:32;;;;;;;16.00;14.30;;;;;;;;;;5035949;28;20182;-70
2023/09/09 08:10:58;;;;;;;15.70;14.00;;;;;;;;;;5035910;28;20226;-69
2023/09/09 08:13:25;;;;;;;17.33;13.83;;;;;;;;;;5036206;28;20179;-71
2023/09/09 08:15:51;;;;;;;15.73;14.23;;;;;;;;;;5036214;28;20663;-69
2023/09/09 08:18:17;;;;;;;17.90;14.97;;;;;;;;;;5036148;28;20199;-70
2023/09/09 08:20:44;;;;;;;17.60;15.30;;;;;;;;;;5035646;28;20281;-69
2023/09/09 08:23:10;;;;;;;21.53;14.63;;;;;;;;;;5017928;28;20179;-69
2023/09/09 08:25:36;;;;;;;16.33;14.63;;;;;;;;;;5035615;28;20181;-70
2023/09/09 08:28:03;;;;;;;19.30;15.53;;;;;;;;;;5035690;28;20267;-69
2023/09/09 08:30:29;;;;;;;17.23;15.10;;;;;;;;;;5017710;28;20242;-69
2023/09/09 08:32:55;;;;;;;18.77;13.93;;;;;;;;;;5035461;28;20535;-71
2023/09/09 08:35:22;;;;;;;19.10;15.30;;;;;;;;;;5035614;28;20205;-69
2023/09/09 08:37:48;;;;;;;19.73;15.57;;;;;;;;;;5017592;28;20305;-68
2023/09/09 08:40:14;;;;;;;19.77;16.37;;;;;;;;;;5017445;28;20222;-70
2023/09/09 08:42:47;;;;;;;17.13;14.77;;;;;;;;;;5035401;28;20175;-68
2023/09/09 08:45:20;;;;;;;18.27;16.53;;;;;;;;;;5034923;28;20538;-69
2023/09/09 08:47:48;;;;;;;25.27;15.50;;;;;;;;;;5035430;28;20239;-69
2023/09/09 08:50:15;;;;;;;22.30;16.43;;;;;;;;;;5035073;28;20578;-69
2023/09/09 08:52:41;;;;;;;18.30;15.40;;;;;;;;;;5035487;28;20207;-70
2023/09/09 08:55:08;;;;;;;21.87;15.80;;;;;;;;;;5035301;28;20297;-70
2023/09/09 08:57:34;;;;;;;21.73;15.70;;;;;;;;;;5017204;28;20211;-70
2023/09/09 09:00:03;;;;;;;19.50;15.13;;;;;;;;;;5017023;28;20758;-70
2023/09/09 09:02:29;;;;;;;22.43;16.20;;;;;;;;;;5035215;28;20207;-70
2023/09/09 09:04:55;;;;;;;24.00;16.40;;;;;;;;;;5035094;28;20203;-70
2023/09/09 09:07:21;;;;;;;19.50;15.53;;;;;;;;;;5017069;28;20187;-68
2023/09/09 09:09:47;;;;;;;20.87;16.13;;;;;;;;;;5034899;28;20199;-69
2023/09/09 09:12:14;;;;;;;17.83;15.67;;;;;;;;;;5035265;28;20248;-69
2023/09/09 09:14:47;;;;;;;19.83;15.53;;;;;;;;;;5035222;28;20214;-69
2023/09/09 09:17:15;;;;;;;20.50;15.43;;;;;;;;;;5035028;28;20202;-71
2023/09/09 09:19:41;;;;;;;22.10;15.17;;;;;;;;;;5036661;28;20226;-70
2023/09/09 09:22:08;;;;;;;22.43;14.10;;;;;;;;;;5017032;28;20859;-69
2023/09/09 09:24:44;;;;;;;19.13;13.80;;;;;;;;;;5034836;28;20254;-70
2023/09/09 09:27:11;;;;;;;19.37;14.20;;;;;;;;;;5016909;28;20189;-69
2023/09/09 09:29:40;;;;;;;17.57;13.60;;;;;;;;;;5034631;28;20191;-69
2023/09/09 09:32:07;;;;;;;23.00;14.70;;;;;;;;;;5048990;22;20288;-69
2023/09/09 09:34:33;;;;;;;21.27;14.00;;;;;;;;;;5034696;28;20197;-70
2023/09/09 09:37:03;;;;;;;15.33;12.70;;;;;;;;;;5016363;28;20206;-70
2023/09/09 09:39:35;;;;;;;21.10;13.17;;;;;;;;;;5034271;28;20185;-70
2023/09/09 09:42:02;;;;;;;17.90;12.97;;;;;;;;;;5033990;28;20563;-70
2023/09/09 09:44:28;;;;;;;22.57;12.13;;;;;;;;;;5016286;28;20171;-70
2023/09/09 09:47:01;;;;;;;17.90;12.53;;;;;;;;;;5033904;28;20194;-70
2023/09/09 09:49:33;;;;;;;21.93;13.43;;;;;;;;;;5016331;28;20266;-71
2023/09/09 09:51:59;;;;;;;16.90;13.10;;;;;;;;;;5016238;28;20293;-70
2023/09/09 09:54:25;;;;;;;21.43;11.83;;;;;;;;;;5033742;28;20676;-70
2023/09/09 09:56:52;;;;;;;17.83;12.30;;;;;;;;;;5015257;28;20235;-70
2023/09/09 09:59:19;;;;;;;21.23;12.50;;;;;;;;;;5033607;28;20183;-70
2023/09/09 10:01:45;;;;;;;13.60;11.17;;;;;;;;;;5034056;28;20668;-70
2023/09/09 10:04:11;;;;;;;16.07;10.93;;;;;;;;;;5033588;28;20179;-70
2023/09/09 10:06:39;;;;;;;20.80;12.97;;;;;;;;;;5033645;28;20548;-69
2023/09/09 10:09:18;;;;;;;21.43;13.27;;;;;;;;;;5033608;28;20576;-69
2023/09/09 10:11:50;;;;;;;18.87;12.50;;;;;;;;;;5033588;28;20245;-70
2023/09/09 10:14:17;;;;;;;15.67;11.30;;;;;;;;;;5033398;28;20167;-68
2023/09/09 10:16:43;;;;;;;16.73;10.93;;;;;;;;;;5033554;28;20367;-70
2023/09/09 10:19:13;;;;;;;23.70;11.80;;;;;;;;;;5033765;28;20581;-70
2023/09/09 10:21:40;;;;;;;14.23;10.97;;;;;;;;;;5033566;28;20199;-71
2023/09/09 10:24:06;;;;;;;15.70;11.13;;;;;;;;;;5015705;28;20167;-70
2023/09/09 10:26:32;;;;;;;18.70;12.00;;;;;;;;;;5015467;28;20176;-71
2023/09/09 10:28:59;;;;;;;18.23;13.33;;;;;;;;;;5033216;28;20263;-70
2023/09/09 10:31:29;;;;;;;18.97;12.83;;;;;;;;;;5033654;28;20761;-70
2023/09/09 10:33:56;;;;;;;19.87;12.13;;;;;;;;;;5015332;28;20257;-70
2023/09/09 10:36:22;;;;;;;14.17;12.77;;;;;;;;;;5033245;28;20213;-70
2023/09/09 10:38:49;;;;;;;17.40;13.53;;;;;;;;;;5015331;28;20234;-70
2023/09/09 10:41:16;;;;;;;17.97;16.07;;;;;;;;;;5015379;28;20203;-71
2023/09/09 10:43:42;;;;;;;;;;;;;;;;;;5034062;28;20456;-70
2023/09/09 10:46:07;;;;;;;;;;;;;;;;;;5015676;28;19912;-70
2023/09/09 10:48:33;;;;;;;;;;;;;;;;;;5015711;28;20259;-71
2023/09/09 10:50:59;;;;;;;;;;;;;;;;;;5033431;28;19909;-70
2023/09/09 10:53:26;;;;;;;;;;;;;;;;;;5033372;28;19912;-72
2023/09/09 10:55:53;;;;;;;;;;;;;;;;;;5015758;28;19912;-70
2023/09/09 10:58:19;;;;;;;;;;;;;;;;;;5033527;28;19995;-70
2023/09/09 11:00:45;;;;;;;;;;;;;;;;;;5033149;28;19990;-69
2023/09/09 11:03:11;;;;;;;;;;;;;;;;;;5015915;28;20012;-70
2023/09/09 11:05:55;;;;;;;19.90;13.20;;;;;;;;;;5033034;28;20187;-70
2023/09/09 11:08:38;;;;;;;16.40;12.60;;;;;;;;;;5033646;28;20186;-70
2023/09/09 11:11:04;;;;;;;25.80;14.10;;;;;;;;;;5019293;28;20202;-69
2023/09/09 11:13:39;;;;;;;16.53;13.53;;;;;;;;;;5037066;28;20182;-70
2023/09/09 11:16:06;;;;;;;20.57;15.40;;;;;;;;;;5036826;28;20175;-69
2023/09/09 11:18:33;;;;;;;23.52;13.70;;;;;;;;;;5037203;28;20245;-69
2023/09/09 11:21:00;;;;;;;18.17;13.63;;;;;;;;;;5036878;28;20627;-70
2023/09/09 11:23:27;;;;;;;18.60;12.03;;;;;;;;;;5037234;28;20182;-70
2023/09/09 11:25:54;;;;;;;17.42;12.50;;;;;;;;;;5037118;28;20175;-71
2023/09/09 11:28:20;;;;;;;24.08;11.45;;;;;;;;;;5036943;28;20661;-69
2023/09/09 11:30:46;;;;;;;15.00;11.60;;;;;;;;;;5036867;28;20195;-69
2023/09/09 11:33:20;;;;;;;17.10;15.20;;;;;;;;;;5036872;28;20365;-70
2023/09/09 11:35:46;;;;;;;24.42;14.68;;;;;;;;;;5036808;28;20170;-69
2023/09/09 11:38:13;;;;;;;21.15;15.30;;;;;;;;;;5036882;28;20557;-69
2023/09/09 11:40:40;;;;;;;20.57;14.87;;;;;;;;;;5036671;28;20179;-69
2023/09/09 11:43:10;;;;;;;;;;;;;;;;;;5037293;28;20029;-69
2023/09/09 11:45:35;;;;;;;;;;;;;;;;;;5025023;28;19992;-70
2023/09/09 11:48:02;;;;;;;;;;;;;;;;;;5049080;28;19905;-70
2023/09/09 11:50:28;;;;;;;;;;;;;;;;;;5044184;28;19912;-69
2023/09/09 11:52:56;;;;;;;;;;;;;;;;;;5019421;28;19909;-69
2023/09/09 11:55:22;;;;;;;;;;;;;;;;;;5019159;28;19911;-69
2023/09/09 11:57:48;;;;;;;;;;;;;;;;;;5036947;28;19908;-70
2023/09/09 12:00:13;;;;;;;;;;;;;;;;;;5036587;28;19909;-70
2023/09/09 12:02:39;;;;;;;;;;;;;;;;;;5036768;28;20437;-70
2023/09/09 12:05:07;;;;;;;;;;;;;;;;;;5036434;28;19904;-70
2023/09/09 12:07:33;;;;;;;;;;;;;;;;;;5036435;28;19908;-70
2023/09/09 12:09:59;;;;;;;;;;;;;;;;;;5036822;28;20318;-69
2023/09/09 12:12:25;;;;;;;;;;;;;;;;;;5036105;28;20366;-69
2023/09/09 12:14:51;;;;;;;;;;;;;;;;;;5036281;28;19955;-69
2023/09/09 12:17:17;;;;;;;;;;;;;;;;;;5036241;28;19935;-69
2023/09/09 12:19:43;;;;;;;;;;;;;;;;;;5018658;28;19905;-69
2023/09/09 12:22:09;;;;;;;;;;;;;;;;;;5018404;28;19912;-69
2023/09/09 12:24:34;;;;;;;;;;;;;;;;;;5036870;28;19905;-70
2023/09/09 12:27:00;;;;;;;;;;;;;;;;;;5036609;28;19911;-69
2023/09/09 12:29:27;;;;;;;;;;;;;;;;;;5018426;28;19909;-70
2023/09/09 12:31:53;;;;;;;;;;;;;;;;;;5017885;28;19995;-70
2023/09/09 12:34:19;;;;;;;;;;;;;;;;;;5018601;28;19951;-69
2023/09/09 12:36:47;;;;;;;;;;;;;;;;;;5036157;28;20285;-70
2023/09/09 12:39:13;;;;;;;;;;;;;;;;;;5035768;28;19915;-70
2023/09/09 12:41:39;;;;;;;;;;;;;;;;;;5018065;28;20324;-70
2023/09/09 12:44:05;;;;;;;;;;;;;;;;;;5035769;28;19912;-70
2023/09/09 12:46:31;;;;;;;;;;;;;;;;;;5017941;28;19999;-71
2023/09/09 12:48:57;;;;;;;;;;;;;;;;;;5036007;28;20275;-70
2023/09/09 12:51:23;;;;;;;;;;;;;;;;;;5036031;28;19905;-70
2023/09/09 12:53:49;;;;;;;;;;;;;;;;;;5035964;28;19976;-70
2023/09/09 12:56:15;;;;;;;;;;;;;;;;;;5035557;28;19911;-69
2023/09/09 12:58:41;;;;;;;;;;;;;;;;;;5035494;28;20007;-69
2023/09/09 13:01:07;;;;;;;;;;;;;;;;;;5035793;28;20381;-70
2023/09/09 13:03:33;;;;;;;13.10;7.83;;;;;;;;;;5033915;28;20399;-69
2023/09/09 13:05:59;;;;;;;9.77;7.05;;;;;;;;;;5034075;28;20391;-69
2023/09/09 13:08:25;;;;;;;8.13;6.68;;;;;;;;;;5015768;28;20461;-70
2023/09/09 13:10:51;;;;;;;9.75;7.00;;;;;;;;;;5033912;28;20391;-69
2023/09/09 13:13:17;;;;;;;11.00;7.27;;;;;;;;;;5034299;28;20872;-69
2023/09/09 13:15:43;;;;;;;10.02;6.57;;;;;;;;;;5015901;28;20888;-69
2023/09/09 13:18:09;;;;;;;6.90;6.20;;;;;;;;;;5033414;28;20399;-69
2023/09/09 13:20:35;;;;;;;8.13;7.13;;;;;;;;;;5015966;28;20375;-71
2023/09/09 13:23:01;;;;;;;8.20;6.77;;;;;;;;;;5034035;28;20466;-70
2023/09/09 13:25:27;;;;;;;13.32;7.57;;;;;;;;;;5015817;28;20464;-71
2023/09/09 13:27:53;;;;;;;9.18;7.47;;;;;;;;;;5015603;28;20387;-70
2023/09/09 13:30:19;;;;;;;8.77;7.88;;;;;;;;;;5033347;28;20391;-70
2023/09/09 13:32:45;;;;;;;8.73;7.82;;;;;;;;;;5032987;28;20430;-70
2023/09/09 13:35:11;;;;;;;9.70;8.70;;;;;;;;;;5033166;28;20399;-71
2023/09/09 13:37:37;;;;;;;9.05;8.20;;;;;;;;;;5015507;28;20405;-70
2023/09/09 13:40:03;;;;;;;11.82;7.97;;;;;;;;;;5033523;28;20418;-70
2023/09/09 13:42:29;;;;;;;9.32;7.03;;;;;;;;;;5032812;28;20422;-70
2023/09/09 13:44:55;;;;;;;10.63;6.75;;;;;;;;;;5033204;28;20371;-69
2023/09/09 13:47:21;;;;;;;9.20;6.93;;;;;;;;;;5032883;28;20482;-70
2023/09/09 13:49:47;;;;;;;7.68;6.40;;;;;;;;;;5015374;28;20394;-70
2023/09/09 13:52:13;;;;;;;7.10;6.05;;;;;;;;;;5015215;28;20388;-70
2023/09/09 13:54:39;;;;;;;6.80;5.90;;;;;;;;;;5015097;28;20387;-70
2023/09/09 13:57:06;;;;;;;9.00;5.88;;;;;;;;;;5032906;28;20549;-70
2023/09/09 13:59:32;;;;;;;8.05;5.95;;;;;;;;;;5032836;28;20422;-69
2023/09/09 14:01:58;;;;;;;8.40;5.65;;;;;;;;;;5032851;28;20437;-69
2023/09/09 14:04:25;;;;;;;7.38;5.72;;;;;;;;;;5015082;28;20395;-69
2023/09/09 14:06:51;;;;;;;8.45;5.70;;;;;;;;;;5015206;28;20387;-69
2023/09/09 14:09:17;;;;;;;7.25;6.25;;;;;;;;;;5032895;28;20393;-69
2023/09/09 14:11:43;;;;;;;8.00;6.57;;;;;;;;;;5032463;28;20382;-70
2023/09/09 14:14:09;;;;;;;7.63;6.10;;;;;;;;;;5032987;28;20403;-69
2023/09/09 14:16:35;;;;;;;6.67;5.90;;;;;;;;;;5032410;28;20375;-71
2023/09/09 14:19:01;;;;;;;;;;;;;;;;;;5033553;28;20259;-71
2023/09/09 14:21:27;;;;;;;;;;;;;;;;;;5033712;28;20104;-70
2023/09/09 14:23:53;;;;;;;;;;;;;;;;;;5033969;28;20200;-71
2023/09/09 14:26:19;;;;;;;;;;;;;;;;;;5034070;28;19975;-70
2023/09/09 14:28:45;;;;;;;;;;;;;;;;;;5016191;28;20037;-69
2023/09/09 14:31:11;;;;;;;;;;;;;;;;;;5033253;28;20189;-70
2023/09/09 14:33:37;;;;;;;;;;;;;;;;;;5021086;28;20713;-70
2023/09/09 14:36:03;;;;;;;;;;;;;;;;;;5025326;28;19993;-71
2023/09/09 14:38:29;;;;;;;;;;;;;;;;;;5043352;28;19955;-70
2023/09/09 14:40:55;;;;;;;;;;;;;;;;;;5015949;28;20419;-71
2023/09/09 14:43:20;;;;;;;;;;;;;;;;;;5033868;28;19944;-70
2023/09/09 14:45:46;;;;;;;;;;;;;;;;;;5033882;28;20463;-70
2023/09/09 14:48:12;;;;;;;;;;;;;;;;;;5016014;28;19942;-70
2023/09/09 14:50:38;;;;;;;;;;;;;;;;;;5034032;28;20437;-70
2023/09/09 14:53:04;;;;;;;;;;;;;;;;;;5016199;28;19973;-70
2023/09/09 14:55:30;;;;;;;;;;;;;;;;;;5015954;28;19988;-70
2023/09/09 14:57:56;;;;;;;;;;;;;;;;;;5033604;28;19946;-69